Time;durP1;ratioP1;P1;durP2;ratioP2;P2;SDS_P1;SDS_P2;PMS_P1;PMS_P2;Temp;Humidity;BMP_temperature;BMP_pressure;BME280_temperature;BME280_humidity;BME280_pressure;Samples;Min_cycle;Max_cycle;Signal;HPM_P1;HPM_P2
2023/01/04 04:01:04;;;;;;;3.07;2.03;;;4.90;90.30;;;;;;5871133;23;20492;-79
2023/01/04 04:09:01;;;;;;;2.60;1.97;;;5.00;90.30;;;;;;5011605;28;20397;-79
2023/01/04 04:11:30;;;;;;;3.20;2.23;;;5.10;90.10;;;;;;5022095;28;20457;-78
2023/01/04 04:13:58;;;;;;;3.30;2.83;;;4.90;90.20;;;;;;4998157;28;20485;-79
2023/01/04 04:16:26;;;;;;;3.50;2.90;;;4.90;90.70;;;;;;4998623;28;20492;-79
2023/01/04 04:18:53;;;;;;;2.43;1.90;;;4.90;91.00;;;;;;4997301;28;20523;-79
2023/01/04 04:21:20;;;;;;;2.43;2.00;;;5.00;90.70;;;;;;4997037;28;20469;-79
2023/01/04 04:23:47;;;;;;;2.60;1.97;;;5.20;90.30;;;;;;4996737;28;20449;-79
2023/01/04 04:26:13;;;;;;;2.30;1.60;;;5.10;89.60;;;;;;4996885;28;20953;-79
2023/01/04 04:28:40;;;;;;;3.07;2.40;;;5.20;89.60;;;;;;4996559;28;20449;-79
2023/01/04 04:31:07;;;;;;;2.93;2.03;;;5.20;89.50;;;;;;4996624;28;20532;-77
2023/01/04 04:33:35;;;;;;;2.80;2.13;;;5.30;89.70;;;;;;4996512;28;20481;-77
2023/01/04 04:36:01;;;;;;;2.73;2.30;;;5.60;89.30;;;;;;4996535;28;20450;-77
2023/01/04 04:38:28;;;;;;;2.90;2.07;;;5.60;88.20;;;;;;4996374;28;20529;-77
2023/01/04 04:43:39;;;;;;;3.13;2.67;;;5.40;88.50;;;;;;4996448;28;20906;-76
2023/01/04 04:46:06;;;;;;;2.50;1.73;;;5.30;89.00;;;;;;4995935;28;20865;-77
2023/01/04 04:48:32;;;;;;;2.73;1.83;;;5.30;88.90;;;;;;4996303;28;20455;-77
2023/01/04 04:51:00;;;;;;;2.60;1.80;;;5.30;89.00;;;;;;4996181;28;20465;-77
2023/01/04 04:53:27;;;;;;;3.60;1.90;;;5.30;89.30;;;;;;4996049;28;20516;-76
2023/01/04 04:55:54;;;;;;;2.67;1.80;;;5.30;89.50;;;;;;4996129;28;20508;-76
2023/01/04 04:58:21;;;;;;;2.87;2.23;;;5.30;89.20;;;;;;4996078;28;20449;-76
2023/01/04 05:00:48;;;;;;;2.83;2.10;;;5.50;89.20;;;;;;4995840;28;20469;-77
2023/01/04 05:03:15;;;;;;;3.13;2.40;;;5.50;88.70;;;;;;4995991;28;20484;-76
2023/01/04 05:05:42;;;;;;;2.30;1.90;;;5.60;88.50;;;;;;4995911;28;20453;-77
2023/01/04 05:08:09;;;;;;;2.30;1.70;;;5.60;88.50;;;;;;4996701;28;20845;-77
2023/01/04 05:10:37;;;;;;;2.83;2.00;;;5.60;88.50;;;;;;4995429;28;20961;-77
2023/01/04 05:13:05;;;;;;;2.23;1.67;;;5.70;88.30;;;;;;4995738;28;20579;-77
2023/01/04 05:15:34;;;;;;;3.60;1.83;;;5.60;88.60;;;;;;4995717;28;20449;-79
2023/01/04 05:18:01;;;;;;;2.20;1.53;;;5.70;88.80;;;;;;4995748;28;20540;-78
2023/01/04 05:20:28;;;;;;;2.83;2.00;;;5.70;88.70;;;;;;4995611;28;20496;-78
2023/01/04 05:22:55;;;;;;;2.97;2.10;;;5.60;88.80;;;;;;4995625;28;20508;-78
2023/01/04 05:25:23;;;;;;;3.17;2.07;;;5.70;88.90;;;;;;4995591;28;20449;-78
2023/01/04 05:27:49;;;;;;;2.33;1.60;;;5.70;89.10;;;;;;4995519;28;20504;-78
2023/01/04 05:33:01;;;;;;;3.87;1.80;;;5.90;88.80;;;;;;4995549;28;20489;-78
2023/01/04 05:35:27;;;;;;;2.73;1.70;;;6.00;88.30;;;;;;4994674;28;20452;-78
2023/01/04 05:37:54;;;;;;;2.80;1.70;;;5.90;88.30;;;;;;4995336;28;20441;-78
2023/01/04 05:40:23;;;;;;;2.03;1.43;;;6.10;88.50;;;;;;4995229;28;20500;-78
2023/01/04 05:42:50;;;;;;;2.70;1.67;;;6.00;87.90;;;;;;4995194;28;20450;-78
2023/01/04 05:45:18;;;;;;;3.23;2.33;;;6.00;88.00;;;;;;4994855;28;20853;-77
2023/01/04 05:47:45;;;;;;;2.63;1.63;;;5.90;88.20;;;;;;4995315;28;20817;-78
2023/01/04 05:50:11;;;;;;;2.40;1.57;;;5.90;88.70;;;;;;4995051;28;20465;-77
2023/01/04 05:52:38;;;;;;;2.37;1.63;;;6.00;88.80;;;;;;4994983;28;20532;-77
2023/01/04 05:55:05;;;;;;;2.17;1.47;;;6.20;88.20;;;;;;4994924;28;20481;-77
2023/01/04 05:57:33;;;;;;;3.03;1.97;;;6.20;88.20;;;;;;4995040;28;20453;-78
2023/01/04 06:00:00;;;;;;;2.63;1.97;;;6.20;88.10;;;;;;4994857;28;21001;-78
2023/01/04 06:02:30;;;;;;;2.53;1.70;;;6.20;88.30;;;;;;4994649;28;20996;-78
2023/01/04 06:04:57;;;;;;;2.40;1.70;;;6.10;88.80;;;;;;4994946;28;20445;-78
2023/01/04 06:07:24;;;;;;;3.03;1.80;;;6.10;88.80;;;;;;4994889;28;20828;-78
2023/01/04 06:09:51;;;;;;;2.13;1.43;;;6.10;88.80;;;;;;4994828;28;20495;-78
2023/01/04 06:12:17;;;;;;;3.37;2.33;;;6.10;88.90;;;;;;4994744;28;20469;-78
2023/01/04 06:14:45;;;;;;;2.27;1.60;;;6.20;88.80;;;;;;4994389;28;20489;-78
2023/01/04 06:17:12;;;;;;;2.50;1.50;;;6.30;88.50;;;;;;4994386;28;20855;-78
2023/01/04 06:19:39;;;;;;;2.33;1.47;;;6.20;88.30;;;;;;4994702;28;20512;-78
2023/01/04 06:22:07;;;;;;;2.90;1.73;;;6.10;88.30;;;;;;4994507;28;20469;-78
2023/01/04 06:24:34;;;;;;;4.37;2.30;;;6.10;88.60;;;;;;4994601;28;20453;-78
2023/01/04 06:27:00;;;;;;;2.63;1.83;;;6.10;88.60;;;;;;4994445;28;20449;-78
2023/01/04 06:29:27;;;;;;;2.33;1.77;;;6.20;88.90;;;;;;4994406;28;20449;-78
2023/01/04 06:31:55;;;;;;;2.47;1.63;;;6.20;88.50;;;;;;4994390;28;20465;-78
2023/01/04 06:34:22;;;;;;;2.57;1.67;;;6.10;88.40;;;;;;4994456;28;20563;-78
2023/01/04 06:36:48;;;;;;;2.13;1.63;;;6.10;88.70;;;;;;4994394;28;20499;-78
2023/01/04 06:39:15;;;;;;;2.20;1.50;;;6.10;88.60;;;;;;4994404;28;20442;-78
2023/01/04 06:41:42;;;;;;;2.80;2.00;;;6.10;88.40;;;;;;4994212;28;20478;-78
2023/01/04 06:44:08;;;;;;;2.60;1.53;;;6.10;88.50;;;;;;4994295;28;20461;-78
2023/01/04 06:46:35;;;;;;;2.93;2.20;;;6.10;88.80;;;;;;4994053;28;20438;-77
2023/01/04 06:49:03;;;;;;;2.63;1.60;;;6.40;92.10;;;;;;4994676;28;20472;-78
2023/01/04 06:51:30;;;;;;;3.33;1.47;;;6.40;87.60;;;;;;4994450;28;20469;-78
2023/01/04 06:53:57;;;;;;;2.53;1.77;;;6.40;87.90;;;;;;4994165;28;20528;-78
2023/01/04 06:56:24;;;;;;;2.43;1.80;;;6.40;87.20;;;;;;4994281;28;20449;-77
2023/01/04 06:58:50;;;;;;;2.70;1.67;;;6.40;87.20;;;;;;4995823;28;20453;-78
2023/01/04 07:01:17;;;;;;;2.20;1.40;;;6.50;87.30;;;;;;4993551;28;20892;-78
2023/01/04 07:03:44;;;;;;;2.00;1.13;;;6.50;86.70;;;;;;4993995;28;20500;-78
2023/01/04 07:06:12;;;;;;;2.60;1.70;;;6.40;86.80;;;;;;4993830;28;20471;-77
2023/01/04 07:08:38;;;;;;;1.73;1.10;;;6.40;86.90;;;;;;4993834;28;20444;-77
2023/01/04 07:11:05;;;;;;;2.20;1.60;;;6.40;86.40;;;;;;4993797;28;20465;-78
2023/01/04 07:13:32;;;;;;;3.70;1.70;;;6.40;86.70;;;;;;4993411;28;20966;-78
2023/01/04 07:15:59;;;;;;;2.30;1.50;;;6.40;86.50;;;;;;4993909;28;20466;-77
2023/01/04 07:18:25;;;;;;;2.10;1.30;;;6.50;86.40;;;;;;4993931;28;20460;-77
2023/01/04 07:20:52;;;;;;;2.10;1.30;;;6.50;86.00;;;;;;4994412;28;20469;-78
2023/01/04 07:23:20;;;;;;;2.57;1.40;;;6.50;86.00;;;;;;4993720;28;20453;-77
2023/01/04 07:25:47;;;;;;;2.00;1.30;;;6.50;86.00;;;;;;4993655;28;20499;-78
2023/01/04 07:29:13;;;;;;;2.00;1.30;;;6.60;86.10;;;;;;4993860;28;20445;-77
2023/01/04 07:31:04;;;;;;;1.70;0.97;;;6.60;86.50;;;;;;4993131;28;20462;-77
2023/01/04 07:33:31;;;;;;;2.30;1.33;;;6.60;87.10;;;;;;4993199;28;20964;-76
2023/01/04 07:36:02;;;;;;;2.53;1.57;;;6.60;86.70;;;;;;4993604;28;20501;-77
2023/01/04 07:38:30;;;;;;;2.30;1.37;;;6.60;87.10;;;;;;4993644;28;20441;-77
2023/01/04 07:40:57;;;;;;;2.10;1.10;;;6.40;87.30;;;;;;4993448;28;20564;-78
2023/01/04 07:43:23;;;;;;;2.67;1.20;;;6.40;88.00;;;;;;4993796;28;20453;-78
2023/01/04 07:45:50;;;;;;;3.00;1.70;;;6.30;88.90;;;;;;4993477;28;20859;-78
2023/01/04 07:48:17;;;;;;;1.80;1.07;;;6.40;89.60;;;;;;4993402;28;21000;-78
2023/01/04 07:50:44;;;;;;;3.13;1.17;;;6.40;89.00;;;;;;4993559;28;20508;-78
2023/01/04 07:53:12;;;;;;;1.97;1.30;;;6.30;89.30;;;;;;4993677;28;20492;-78
2023/01/04 07:55:40;;;;;;;2.10;1.30;;;6.30;89.70;;;;;;4993961;28;20488;-79
2023/01/04 07:58:06;;;;;;;2.53;1.50;;;6.30;89.60;;;;;;4994842;28;20528;-78
2023/01/04 08:00:33;;;;;;;1.90;1.20;;;6.20;89.90;;;;;;5000864;28;20875;-77
2023/01/04 08:03:00;;;;;;;2.20;1.30;;;6.20;89.90;;;;;;5000034;28;20457;-78
2023/01/04 08:05:26;;;;;;;2.80;1.50;;;6.20;90.20;;;;;;4999709;28;20497;-79
2023/01/04 08:07:53;;;;;;;2.03;1.20;;;6.10;89.90;;;;;;4999881;28;20453;-78
2023/01/04 08:10:20;;;;;;;2.10;1.37;;;6.00;90.30;;;;;;4998791;28;20453;-78
2023/01/04 08:12:48;;;;;;;1.90;0.93;;;6.00;90.70;;;;;;4999427;28;20452;-78
2023/01/04 08:15:14;;;;;;;3.90;1.13;;;6.00;90.80;;;;;;4999530;28;20535;-80
2023/01/04 08:17:41;;;;;;;2.10;1.17;;;6.10;90.50;;;;;;5002199;28;20445;-79
2023/01/04 08:20:08;;;;;;;2.13;1.10;;;6.10;90.70;;;;;;4998935;28;20453;-78
2023/01/04 08:22:35;;;;;;;1.87;1.30;;;6.10;90.70;;;;;;4998332;28;20961;-79
2023/01/04 08:25:02;;;;;;;1.87;1.00;;;6.20;90.70;;;;;;4999813;28;20457;-79
2023/01/04 08:27:28;;;;;;;4.03;1.17;;;6.20;90.50;;;;;;5000545;28;20943;-79
2023/01/04 08:29:56;;;;;;;2.00;1.20;;;6.10;90.00;;;;;;4999194;28;20521;-79
2023/01/04 08:32:23;;;;;;;2.10;1.10;;;6.20;90.10;;;;;;4999140;28;20997;-79
2023/01/04 08:34:50;;;;;;;2.17;1.23;;;6.30;89.60;;;;;;4997157;28;20489;-78
2023/01/04 08:37:17;;;;;;;2.07;1.10;;;6.30;89.80;;;;;;4997223;28;20801;-78
2023/01/04 08:39:43;;;;;;;2.37;0.90;;;6.30;90.00;;;;;;4997515;28;20464;-79
2023/01/04 08:42:10;;;;;;;1.83;0.93;;;6.40;89.80;;;;;;4997020;28;20528;-79
2023/01/04 08:44:37;;;;;;;1.70;0.93;;;6.40;89.00;;;;;;4997594;28;20453;-78
2023/01/04 08:47:05;;;;;;;1.73;1.00;;;6.40;88.40;;;;;;4998220;28;20449;-80
2023/01/04 08:49:31;;;;;;;2.10;0.80;;;6.30;88.70;;;;;;4998185;28;21013;-77
2023/01/04 08:51:58;;;;;;;2.70;1.30;;;6.30;88.90;;;;;;4998085;28;20469;-78
2023/01/04 08:54:24;;;;;;;2.00;0.90;;;6.30;88.90;;;;;;4996275;28;21022;-78
2023/01/04 08:56:51;;;;;;;1.63;0.90;;;6.40;89.20;;;;;;4997035;28;20588;-78
2023/01/04 08:59:18;;;;;;;2.53;1.10;;;6.40;89.00;;;;;;4996861;28;20871;-79
2023/01/04 09:01:45;;;;;;;1.90;1.03;;;6.50;88.20;;;;;;4996832;28;20834;-79
2023/01/04 09:04:13;;;;;;;3.60;1.10;;;6.60;87.70;;;;;;4999046;28;20821;-78
2023/01/04 09:06:41;;;;;;;1.83;1.13;;;6.60;87.10;;;;;;4998842;28;20449;-79
2023/01/04 09:09:08;;;;;;;3.53;1.20;;;6.60;87.80;;;;;;4998395;28;20453;-78
2023/01/04 09:11:35;;;;;;;1.80;0.90;;;6.60;87.10;;;;;;4996669;28;20489;-79
2023/01/04 09:14:02;;;;;;;2.27;1.10;;;6.60;87.40;;;;;;4997040;28;20492;-78
2023/01/04 09:16:29;;;;;;;2.10;0.90;;;6.60;86.70;;;;;;4997017;28;20499;-79
2023/01/04 09:18:56;;;;;;;2.17;1.10;;;6.70;86.80;;;;;;4997753;28;20484;-78
2023/01/04 09:21:24;;;;;;;1.87;0.80;;;6.70;86.30;;;;;;4996341;28;20548;-78
2023/01/04 09:23:50;;;;;;;2.27;1.00;;;6.80;85.80;;;;;;4996048;28;20446;-77
2023/01/04 09:26:20;;;;;;;1.80;0.90;;;6.80;85.80;;;;;;4995896;28;20442;-76
2023/01/04 09:28:47;;;;;;;2.07;1.03;;;6.90;86.20;;;;;;4995936;28;20441;-77
2023/01/04 09:31:16;;;;;;;4.40;0.90;;;6.90;85.00;;;;;;4995928;28;20470;-77
2023/01/04 09:33:43;;;;;;;2.33;0.83;;;7.00;85.30;;;;;;4995575;28;20934;-77
2023/01/04 09:36:14;;;;;;;1.70;0.77;;;7.00;85.70;;;;;;4995863;28;20496;-77
2023/01/04 09:38:43;;;;;;;1.97;1.00;;;7.10;84.70;;;;;;4995851;28;20488;-77
2023/01/04 09:41:18;;;;;;;1.70;0.90;;;7.10;84.90;;;;;;4995697;28;20477;-77
2023/01/04 09:43:47;;;;;;;1.83;0.83;;;7.10;84.20;;;;;;4995824;28;20437;-77
2023/01/04 09:46:20;;;;;;;1.80;0.97;;;7.10;84.00;;;;;;4995598;28;20445;-77
2023/01/04 09:48:49;;;;;;;2.20;1.00;;;7.30;83.70;;;;;;4995266;28;20438;-77
2023/01/04 09:51:19;;;;;;;1.60;0.97;;;7.40;83.30;;;;;;4995002;28;20469;-80
2023/01/04 09:53:55;;;;;;;1.90;1.17;;;7.50;84.50;;;;;;4994857;28;20923;-76
2023/01/04 09:56:26;;;;;;;2.93;1.00;;;7.50;82.50;;;;;;4994827;28;20520;-76
2023/01/04 09:58:54;;;;;;;1.70;0.80;;;7.60;82.30;;;;;;4994935;28;20438;-75
2023/01/04 10:01:23;;;;;;;2.10;0.90;;;7.70;83.30;;;;;;4994563;28;20489;-76
2023/01/04 10:03:58;;;;;;;1.80;0.90;;;7.60;81.40;;;;;;4994780;28;20457;-75
2023/01/04 10:06:25;;;;;;;1.67;0.83;;;7.60;83.50;;;;;;4994695;28;20431;-77
2023/01/04 10:09:04;;;;;;;1.67;0.93;;;7.70;82.20;;;;;;4994599;28;20533;-77
2023/01/04 10:11:47;;;;;;;2.13;0.90;;;7.70;81.70;;;;;;4994596;28;20473;-76
2023/01/04 10:14:43;;;;;;;1.70;0.80;;;7.70;82.50;;;;;;4994518;28;20488;-76
2023/01/04 10:17:23;;;;;;;2.43;1.00;;;7.60;82.30;;;;;;4995187;28;20429;-76
2023/01/04 10:20:03;;;;;;;2.63;0.90;;;7.70;82.60;;;;;;4994522;28;20433;-76
2023/01/04 10:22:39;;;;;;;1.73;0.80;;;7.70;83.10;;;;;;4994111;28;20548;-76
2023/01/04 10:25:21;;;;;;;1.80;0.90;;;7.80;82.20;;;;;;4995001;28;20433;-76
2023/01/04 10:27:59;;;;;;;1.73;0.80;;;7.90;82.10;;;;;;4994300;28;20441;-77
2023/01/04 10:30:33;;;;;;;1.70;0.90;;;7.90;81.30;;;;;;4994287;28;20500;-76
2023/01/04 10:33:10;;;;;;;2.63;1.03;;;7.90;81.90;;;;;;4994791;28;20433;-76
2023/01/04 10:35:39;;;;;;;2.20;1.30;;;7.90;81.70;;;;;;4994734;28;20477;-76
2023/01/04 10:38:15;;;;;;;1.70;0.93;;;7.90;81.80;;;;;;4994502;28;20453;-76
2023/01/04 10:40:45;;;;;;;3.20;1.30;;;7.90;81.90;;;;;;4994624;28;20810;-77
2023/01/04 10:43:19;;;;;;;1.77;1.00;;;8.00;82.00;;;;;;4994473;28;20437;-77
2023/01/04 10:45:51;;;;;;;2.60;1.50;;;8.00;81.00;;;;;;4994108;28;20571;-77
2023/01/04 10:48:27;;;;;;;3.63;1.77;;;8.10;81.50;;;;;;4994072;28;20488;-77
2023/01/04 10:50:56;;;;;;;1.60;1.00;;;8.00;80.80;;;;;;4994011;28;20515;-78
2023/01/04 10:53:27;;;;;;;2.57;1.40;;;8.00;80.80;;;;;;4993945;28;20540;-77
2023/01/04 10:55:59;;;;;;;1.80;0.90;;;8.10;81.60;;;;;;4993936;28;20527;-77
2023/01/04 10:58:32;;;;;;;1.90;1.00;;;8.20;81.90;;;;;;4993955;28;20430;-77
2023/01/04 11:01:04;;;;;;;1.90;0.93;;;8.30;81.40;;;;;;4993482;28;20896;-78
2023/01/04 11:03:35;;;;;;;2.00;1.10;;;8.30;80.70;;;;;;4993901;28;20429;-77
2023/01/04 11:06:12;;;;;;;2.20;0.90;;;8.40;80.90;;;;;;4993882;28;20434;-77
2023/01/04 11:08:46;;;;;;;1.77;0.87;;;8.60;81.30;;;;;;4993824;28;20444;-77
2023/01/04 11:11:19;;;;;;;1.67;0.80;;;8.70;79.90;;;;;;4993563;28;20941;-76
2023/01/04 11:13:46;;;;;;;3.00;1.37;;;8.70;80.00;;;;;;4994143;28;20488;-77
2023/01/04 11:16:13;;;;;;;2.00;0.90;;;8.70;79.60;;;;;;4994268;28;20539;-76
2023/01/04 11:18:43;;;;;;;2.67;1.00;;;8.70;79.50;;;;;;4994535;28;20519;-78
2023/01/04 11:21:13;;;;;;;2.10;1.10;;;8.80;79.80;;;;;;4994507;28;20473;-78
2023/01/04 11:23:40;;;;;;;1.87;0.90;;;8.70;79.80;;;;;;4994623;28;20845;-78
2023/01/04 11:26:12;;;;;;;1.97;1.17;;;8.70;80.10;;;;;;4994061;28;20508;-77
2023/01/04 11:28:46;;;;;;;1.80;0.90;;;8.80;79.80;;;;;;4994460;28;20473;-77
2023/01/04 11:31:20;;;;;;;1.53;0.80;;;8.90;79.70;;;;;;4994031;28;20477;-77
2023/01/04 11:33:56;;;;;;;2.20;1.10;;;8.90;80.50;;;;;;4995246;28;20437;-77
2023/01/04 11:36:37;;;;;;;2.00;0.90;;;8.90;79.60;;;;;;4997593;28;20535;-77
2023/01/04 11:39:06;;;;;;;2.77;1.10;;;8.90;79.70;;;;;;4997782;28;20444;-77
2023/01/04 11:41:33;;;;;;;1.70;0.90;;;9.00;79.70;;;;;;4997652;28;20473;-77
2023/01/04 11:44:03;;;;;;;2.47;1.10;;;8.90;79.50;;;;;;4997853;28;20519;-78
2023/01/04 11:46:32;;;;;;;1.87;1.00;;;8.90;79.20;;;;;;4997552;28;20795;-77
2023/01/04 11:48:58;;;;;;;1.90;0.90;;;8.90;79.60;;;;;;4997775;28;20844;-77
2023/01/04 11:51:38;;;;;;;1.90;1.10;;;8.90;79.70;;;;;;4997470;28;20469;-78
2023/01/04 11:54:17;;;;;;;2.07;1.13;;;8.90;79.80;;;;;;4997980;28;20437;-77
2023/01/04 11:56:59;;;;;;;2.30;1.23;;;8.90;80.30;;;;;;4997756;28;20559;-77
2023/01/04 11:59:28;;;;;;;1.80;1.00;;;9.00;80.10;;;;;;4998152;28;20524;-79
2023/01/04 12:02:20;;;;;;;2.70;1.20;;;9.00;80.10;;;;;;4997273;28;20481;-78
2023/01/04 12:04:56;;;;;;;1.70;0.80;;;9.00;80.40;;;;;;4998222;28;20452;-77
2023/01/04 12:07:30;;;;;;;1.60;0.80;;;9.00;80.20;;;;;;5008470;28;20449;-78
2023/01/04 12:09:58;;;;;;;1.73;0.90;;;9.10;80.00;;;;;;5020600;28;20493;-77
2023/01/04 12:12:29;;;;;;;1.60;0.77;;;9.10;80.10;;;;;;5019970;28;20485;-78
2023/01/04 12:15:03;;;;;;;1.90;1.10;;;9.10;80.70;;;;;;5016583;28;20437;-77
2023/01/04 12:17:42;;;;;;;1.87;0.77;;;9.20;80.30;;;;;;5006078;28;20858;-76
2023/01/04 12:20:15;;;;;;;1.87;1.10;;;9.10;80.40;;;;;;5007137;28;20429;-76
2023/01/04 12:22:42;;;;;;;1.87;1.00;;;9.00;81.00;;;;;;5007999;28;20477;-78
2023/01/04 12:25:24;;;;;;;1.63;0.90;;;9.10;81.20;;;;;;5008709;28;20449;-77
2023/01/04 12:27:54;;;;;;;1.60;0.80;;;9.10;81.00;;;;;;5009680;28;20449;-78
2023/01/04 12:30:36;;;;;;;1.50;0.90;;;9.10;81.50;;;;;;5009678;28;20445;-79
2023/01/04 12:33:38;;;;;;;1.70;0.80;;;9.20;81.50;;;;;;5008711;28;20432;-75
2023/01/04 12:36:06;;;;;;;1.80;0.80;;;9.30;82.80;;;;;;5008357;28;20485;-77
2023/01/04 12:39:06;;;;;;;2.30;1.00;;;9.30;80.70;;;;;;5009593;28;20501;-77
2023/01/04 12:42:18;;;;;;;1.77;0.93;;;9.30;81.00;;;;;;5013580;28;20465;-77
2023/01/04 12:45:16;;;;;;;1.60;0.70;;;9.20;81.30;;;;;;5013988;28;20461;-79
2023/01/04 12:50:31;;;;;;;1.60;0.80;;;9.30;81.70;;;;;;5012770;28;20438;-77
2023/01/04 12:53:29;;;;;;;1.50;0.70;;;9.30;81.70;;;;;;5013777;28;20445;-77
2023/01/04 12:55:56;;;;;;;2.10;0.90;;;9.30;81.50;;;;;;5007083;28;20477;-77
2023/01/04 12:58:56;;;;;;;2.20;0.80;;;9.40;81.70;;;;;;5007518;28;20450;-77
2023/01/04 13:01:25;;;;;;;2.37;1.07;;;9.40;81.60;;;;;;4991957;28;20493;-77
2023/01/04 13:03:58;;;;;;;2.00;0.93;;;9.50;81.70;;;;;;5003766;28;20449;-78
2023/01/04 13:06:28;;;;;;;4.63;1.10;;;9.50;81.20;;;;;;5005568;28;20430;-78
2023/01/04 13:08:54;;;;;;;2.03;0.80;;;9.50;81.80;;;;;;5005062;28;20573;-78
2023/01/04 13:11:58;;;;;;;1.80;0.70;;;9.60;81.60;;;;;;5005464;28;20469;-78
2023/01/04 13:14:30;;;;;;;1.60;0.73;;;9.60;81.60;;;;;;4985641;28;20453;-78
2023/01/04 13:17:12;;;;;;;1.60;0.80;;;9.60;81.60;;;;;;5006313;28;20564;-76
2023/01/04 13:19:42;;;;;;;1.70;0.90;;;9.60;81.80;;;;;;4995919;28;20446;-76
2023/01/04 13:22:24;;;;;;;4.30;0.87;;;9.60;81.60;;;;;;4996731;28;20911;-77
2023/01/04 13:24:51;;;;;;;4.03;0.97;;;9.60;81.90;;;;;;4996155;28;20434;-77
2023/01/04 13:27:20;;;;;;;1.67;0.80;;;9.60;81.90;;;;;;4996258;28;20450;-76
2023/01/04 13:29:47;;;;;;;1.70;0.80;;;9.70;82.00;;;;;;4995980;28;20453;-77
2023/01/04 13:32:20;;;;;;;1.73;0.83;;;9.70;81.70;;;;;;4996190;28;20562;-77
2023/01/04 13:34:51;;;;;;;1.80;0.77;;;9.70;81.80;;;;;;4995817;28;20430;-76
2023/01/04 13:37:27;;;;;;;2.00;0.80;;;9.80;82.50;;;;;;4995564;28;20478;-77
2023/01/04 13:40:16;;;;;;;1.70;0.87;;;9.80;81.60;;;;;;4995547;28;20492;-76
2023/01/04 13:42:45;;;;;;;1.50;0.70;;;9.90;81.70;;;;;;4993155;28;20893;-77
2023/01/04 13:45:29;;;;;;;1.60;0.90;;;9.90;81.20;;;;;;4999009;28;20445;-77
2023/01/04 13:47:59;;;;;;;2.27;1.00;;;9.90;81.50;;;;;;4995975;28;20445;-77
2023/01/04 13:50:34;;;;;;;1.87;0.90;;;9.90;81.80;;;;;;4995862;28;20453;-76
2023/01/04 13:53:01;;;;;;;1.60;0.70;;;10.00;81.40;;;;;;4995491;28;20441;-77
2023/01/04 13:55:29;;;;;;;1.73;0.73;;;10.00;81.30;;;;;;4995188;28;20508;-75
2023/01/04 13:57:58;;;;;;;1.60;0.70;;;10.10;81.30;;;;;;4994506;28;20458;-76
2023/01/04 14:00:26;;;;;;;1.70;0.70;;;10.00;81.20;;;;;;4995186;28;20453;-77
2023/01/04 14:03:13;;;;;;;1.80;0.70;;;10.10;81.00;;;;;;4995067;28;20951;-77
2023/01/04 14:05:47;;;;;;;2.57;0.80;;;10.10;81.20;;;;;;4995485;28;20500;-78
2023/01/04 14:08:19;;;;;;;2.40;0.90;;;10.10;80.80;;;;;;4995170;28;20501;-76
2023/01/04 14:10:46;;;;;;;2.17;1.00;;;10.00;80.80;;;;;;4995213;28;20523;-77
2023/01/04 14:13:17;;;;;;;1.60;0.80;;;10.00;81.30;;;;;;4996168;28;20458;-79
2023/01/04 14:15:43;;;;;;;1.77;0.77;;;10.00;81.10;;;;;;4995109;28;20492;-79
2023/01/04 14:18:26;;;;;;;2.90;1.00;;;10.00;80.90;;;;;;4995692;28;20524;-79
2023/01/04 14:20:54;;;;;;;1.57;0.70;;;10.00;81.30;;;;;;4995170;28;20479;-76
2023/01/04 14:23:28;;;;;;;1.60;0.70;;;10.00;81.60;;;;;;4995288;28;20449;-78
2023/01/04 14:25:58;;;;;;;1.73;0.80;;;10.00;81.60;;;;;;4995445;28;20445;-78
2023/01/04 14:28:28;;;;;;;1.60;0.80;;;10.00;81.20;;;;;;4995210;28;20806;-79
2023/01/04 14:31:10;;;;;;;1.50;0.67;;;10.00;81.80;;;;;;4995591;28;20849;-78
2023/01/04 14:33:43;;;;;;;1.70;0.90;;;9.90;81.60;;;;;;4995559;28;20433;-76
2023/01/04 14:36:14;;;;;;;1.60;0.80;;;10.00;81.60;;;;;;4994164;28;20938;-78
2023/01/04 14:38:44;;;;;;;2.43;0.90;;;10.10;81.50;;;;;;4994485;28;20429;-79
2023/01/04 14:41:17;;;;;;;2.00;1.10;;;10.10;81.60;;;;;;4994658;28;20473;-77
2023/01/04 14:43:46;;;;;;;2.07;0.83;;;10.20;80.90;;;;;;4994233;28;20425;-78
2023/01/04 14:46:12;;;;;;;2.10;1.20;;;10.20;80.90;;;;;;4994269;28;20453;-76
2023/01/04 14:48:39;;;;;;;1.57;0.80;;;10.30;80.90;;;;;;4994715;28;20449;-79
2023/01/04 14:51:07;;;;;;;2.67;0.80;;;10.20;80.80;;;;;;4994682;28;20528;-78
2023/01/04 14:53:35;;;;;;;2.17;0.70;;;10.10;81.00;;;;;;4994194;28;20473;-77
2023/01/04 14:56:01;;;;;;;2.20;0.90;;;10.10;81.40;;;;;;4994517;28;20601;-77
2023/01/04 14:58:28;;;;;;;1.70;0.80;;;10.20;81.80;;;;;;4994516;28;20449;-79
2023/01/04 15:00:55;;;;;;;1.97;0.93;;;10.20;81.20;;;;;;4994299;28;20476;-78
2023/01/04 15:03:21;;;;;;;1.50;0.70;;;10.30;80.90;;;;;;4994103;28;20437;-77
2023/01/04 15:05:48;;;;;;;1.63;0.80;;;10.30;81.20;;;;;;4994052;28;20499;-77
2023/01/04 15:08:15;;;;;;;1.60;0.83;;;10.20;81.30;;;;;;4993036;28;20449;-77
2023/01/04 15:10:44;;;;;;;2.03;0.73;;;10.20;81.40;;;;;;4993741;28;20470;-78
2023/01/04 15:13:11;;;;;;;2.67;0.80;;;10.30;81.40;;;;;;4993885;28;20480;-78
2023/01/04 15:15:38;;;;;;;1.70;0.80;;;10.20;81.30;;;;;;4994174;28;20454;-78
2023/01/04 15:18:05;;;;;;;1.83;0.90;;;10.10;81.50;;;;;;4993965;28;20537;-79
2023/01/04 15:20:32;;;;;;;2.07;1.50;;;10.10;81.80;;;;;;4994537;28;20453;-80
2023/01/04 15:22:59;;;;;;;2.13;1.10;;;10.10;81.70;;;;;;4993740;28;20445;-78
2023/01/04 15:25:28;;;;;;;1.70;0.80;;;10.10;82.20;;;;;;4993766;28;20943;-76
2023/01/04 15:27:56;;;;;;;1.90;0.90;;;10.10;82.00;;;;;;4993859;28;20540;-77
2023/01/04 15:30:23;;;;;;;2.27;0.93;;;10.30;83.20;;;;;;4993519;28;20519;-76
2023/01/04 15:32:49;;;;;;;1.60;0.70;;;10.30;81.70;;;;;;4993870;28;20449;-76
2023/01/04 15:35:16;;;;;;;2.77;0.90;;;10.20;81.90;;;;;;4993754;28;20456;-77
2023/01/04 15:37:43;;;;;;;1.60;0.73;;;10.20;81.90;;;;;;4993277;28;21064;-78
2023/01/04 15:40:11;;;;;;;1.50;0.70;;;10.20;81.90;;;;;;4993269;28;20943;-77
2023/01/04 15:45:24;;;;;;;1.60;0.70;;;10.20;82.00;;;;;;4993753;28;20488;-78
2023/01/04 15:47:51;;;;;;;1.80;0.70;;;10.20;82.20;;;;;;4993537;28;20496;-77
2023/01/04 15:50:18;;;;;;;2.10;0.80;;;10.20;82.40;;;;;;4993482;28;20507;-78
2023/01/04 15:52:44;;;;;;;1.50;0.80;;;10.20;82.30;;;;;;4993511;28;20524;-77
2023/01/04 15:55:13;;;;;;;1.57;0.73;;;10.10;82.30;;;;;;4993261;28;20998;-78
2023/01/04 15:57:39;;;;;;;1.67;0.80;;;10.10;82.60;;;;;;4993642;28;20584;-79
2023/01/04 16:00:07;;;;;;;2.17;0.80;;;10.00;82.90;;;;;;4993528;28;20449;-78
2023/01/04 16:02:35;;;;;;;1.77;0.67;;;10.00;83.10;;;;;;4993279;28;20834;-77
2023/01/04 16:05:02;;;;;;;2.67;0.83;;;10.00;83.10;;;;;;4993679;28;20445;-78
2023/01/04 16:07:28;;;;;;;1.70;0.87;;;10.00;83.10;;;;;;4993578;28;20495;-77
2023/01/04 16:09:55;;;;;;;3.23;0.80;;;10.00;83.20;;;;;;4993399;28;20453;-78
2023/01/04 16:15:07;;;;;;;1.60;0.70;;;10.00;83.40;;;;;;4993629;28;20492;-78
2023/01/04 16:17:35;;;;;;;1.50;0.77;;;10.00;83.40;;;;;;4994069;28;20585;-77
2023/01/04 16:20:02;;;;;;;1.40;0.60;;;10.00;83.10;;;;;;4994727;28;20544;-78
2023/01/04 16:22:29;;;;;;;1.60;0.80;;;10.10;83.10;;;;;;4997039;28;20465;-79
2023/01/04 16:24:56;;;;;;;1.50;0.80;;;10.10;82.80;;;;;;4996793;28;20457;-79
2023/01/04 16:27:22;;;;;;;1.60;0.80;;;10.10;83.30;;;;;;4996924;28;20449;-78
2023/01/04 16:29:50;;;;;;;2.17;0.70;;;10.10;83.10;;;;;;4996963;28;20598;-78
2023/01/04 16:32:16;;;;;;;1.90;0.77;;;10.20;83.00;;;;;;4997643;28;20552;-77
2023/01/04 16:34:45;;;;;;;1.60;0.70;;;10.20;82.90;;;;;;5003501;28;21010;-78
2023/01/04 16:37:11;;;;;;;1.60;0.80;;;10.20;83.00;;;;;;5003315;28;20552;-79
2023/01/04 16:39:38;;;;;;;1.83;0.90;;;10.20;83.00;;;;;;4998195;28;20464;-77
2023/01/04 16:42:05;;;;;;;3.67;0.93;;;10.30;82.70;;;;;;4997334;28;21039;-77
2023/01/04 16:44:31;;;;;;;1.70;0.70;;;10.20;82.70;;;;;;4996859;28;20456;-77
2023/01/04 16:46:58;;;;;;;1.60;0.70;;;10.20;82.80;;;;;;4996655;28;20939;-77
2023/01/04 16:49:25;;;;;;;1.87;0.93;;;10.20;83.00;;;;;;4997600;28;20454;-76
2023/01/04 16:51:53;;;;;;;1.50;0.70;;;10.10;82.80;;;;;;4996594;28;20473;-75
2023/01/04 16:54:19;;;;;;;1.70;0.70;;;10.20;82.90;;;;;;4996131;28;20449;-76
2023/01/04 16:56:48;;;;;;;1.50;0.70;;;10.20;82.80;;;;;;4996154;28;20531;-76
2023/01/04 16:59:17;;;;;;;1.60;0.80;;;10.30;82.80;;;;;;4996497;28;20488;-75
2023/01/04 17:01:46;;;;;;;2.40;0.83;;;10.30;82.50;;;;;;4996203;28;20485;-76
2023/01/04 17:04:13;;;;;;;1.40;0.70;;;10.30;82.60;;;;;;4996214;28;20914;-75
2023/01/04 17:06:42;;;;;;;2.40;0.80;;;10.30;82.80;;;;;;4996442;28;20934;-76
2023/01/04 17:09:13;;;;;;;1.90;0.70;;;10.40;82.40;;;;;;4997377;28;20450;-76
2023/01/04 17:11:40;;;;;;;1.60;0.70;;;10.40;82.00;;;;;;5004464;28;20465;-76
2023/01/04 17:14:07;;;;;;;1.57;0.70;;;10.40;82.20;;;;;;5004892;28;20795;-77
2023/01/04 17:16:34;;;;;;;1.63;0.70;;;10.50;81.90;;;;;;5004443;28;20445;-78
2023/01/04 17:19:01;;;;;;;1.67;0.73;;;10.50;81.80;;;;;;5003350;28;20457;-75
2023/01/04 17:21:29;;;;;;;1.50;0.60;;;10.40;81.80;;;;;;5003186;28;20490;-77
2023/01/04 17:23:57;;;;;;;1.90;0.70;;;10.50;81.70;;;;;;5003813;28;20449;-77
2023/01/04 17:26:28;;;;;;;1.70;0.70;;;10.50;81.90;;;;;;5003231;28;20464;-77
2023/01/04 17:28:56;;;;;;;1.60;0.70;;;10.50;82.00;;;;;;5006267;28;20437;-77